Terminal Aerodrome Forecast
Issued by NWS

Home | Current Version | Previous Version | Text Only | Print | Product List | Glossary On
Versions: 1 2 3 4 5 6 7 8 9 10 11 12 13 14 15 16 17 18 19 20 21 22 23 24
374
FTUS41 KGYX 072131 AAB
TAFAUG
TAF AMD
KAUG 072131Z 0722/0818 VRB03KT P6SM -SHSN OVC008
     FM080100 27004KT P6SM OVC025
     FM080500 27005KT P6SM OVC050=

USA.gov is the U.S. government's official web portal to all federal, state and local government web resources and services.